sensor_id;sensor_type;location;lat;lon;timestamp;pressure;altitude;pressure_sealevel;temperature;humidity
72226;BME280;60130;52.250;5.048;2022-11-15T00:00:00;1007.7;;;7.5;90.2
72226;BME280;60130;52.250;5.048;2022-11-15T00:05:00;1007.7;;;7.6;89.9
72226;BME280;60130;52.250;5.048;2022-11-15T00:10:00;1007.7;;;7.5;90.9
72226;BME280;60130;52.250;5.048;2022-11-15T00:15:00;1007.6;;;7.5;91.5
72226;BME280;60130;52.250;5.048;2022-11-15T00:20:00;1007.6;;;7.6;91.5
72226;BME280;60130;52.250;5.048;2022-11-15T00:25:00;1007.6;;;7.7;91.7
72226;BME280;60130;52.250;5.048;2022-11-15T00:30:00;1007.5;;;7.6;91.7
72226;BME280;60130;52.250;5.048;2022-11-15T00:35:00;1007.6;;;7.6;92.0
72226;BME280;60130;52.250;5.048;2022-11-15T00:40:00;1007.6;;;7.6;92.2
72226;BME280;60130;52.250;5.048;2022-11-15T00:45:00;1007.5;;;7.6;92.2
72226;BME280;60130;52.250;5.048;2022-11-15T00:50:00;1007.4;;;7.6;92.4
72226;BME280;60130;52.250;5.048;2022-11-15T00:55:00;1007.3;;;7.7;92.0
72226;BME280;60130;52.250;5.048;2022-11-15T01:00:00;1007.2;;;7.7;92.0
72226;BME280;60130;52.250;5.048;2022-11-15T01:05:00;1007.2;;;7.6;92.1
72226;BME280;60130;52.250;5.048;2022-11-15T01:10:00;1007.2;;;7.7;92.4
72226;BME280;60130;52.250;5.048;2022-11-15T01:15:00;1007.2;;;7.6;92.4
72226;BME280;60130;52.250;5.048;2022-11-15T01:20:00;1007.2;;;7.7;92.4
72226;BME280;60130;52.250;5.048;2022-11-15T01:25:00;1007.2;;;7.7;92.5
72226;BME280;60130;52.250;5.048;2022-11-15T01:30:00;1007.1;;;7.7;92.6
72226;BME280;60130;52.250;5.048;2022-11-15T01:35:00;1007.1;;;7.7;92.8
72226;BME280;60130;52.250;5.048;2022-11-15T01:40:00;1007.0;;;7.8;92.8
72226;BME280;60130;52.250;5.048;2022-11-15T01:45:00;1006.9;;;7.9;93.0
72226;BME280;60130;52.250;5.048;2022-11-15T01:50:02;1006.8;;;7.9;93.1
72226;BME280;60130;52.250;5.048;2022-11-15T01:55:03;1006.9;;;7.9;92.9
72226;BME280;60130;52.250;5.048;2022-11-15T02:00:01;1006.9;;;8.0;93.2
72226;BME280;60130;52.250;5.048;2022-11-15T02:05:00;1006.8;;;8.2;93.0
72226;BME280;60130;52.250;5.048;2022-11-15T02:10:04;1006.8;;;8.2;93.1
72226;BME280;60130;52.250;5.048;2022-11-15T02:15:00;1006.7;;;8.3;93.3
72226;BME280;60130;52.250;5.048;2022-11-15T02:25:04;1006.5;;;8.5;93.1
72226;BME280;60130;52.250;5.048;2022-11-15T02:30:16;1006.3;;;8.6;93.3
72226;BME280;60130;52.250;5.048;2022-11-15T02:35:04;1006.3;;;8.6;92.7
72226;BME280;60130;52.250;5.048;2022-11-15T02:40:06;1006.3;;;8.6;92.8
72226;BME280;60130;52.250;5.048;2022-11-15T02:45:04;1006.2;;;8.7;92.9
72226;BME280;60130;52.250;5.048;2022-11-15T02:50:03;1006.2;;;8.7;93.0
72226;BME280;60130;52.250;5.048;2022-11-15T02:55:01;1006.1;;;8.8;93.1
72226;BME280;60130;52.250;5.048;2022-11-15T03:00:04;1006.0;;;8.9;93.5
72226;BME280;60130;52.250;5.048;2022-11-15T03:05:04;1006.1;;;9.1;94.1
72226;BME280;60130;52.250;5.048;2022-11-15T03:10:06;1006.1;;;9.3;94.0
72226;BME280;60130;52.250;5.048;2022-11-15T03:15:04;1006.1;;;9.4;93.9
72226;BME280;60130;52.250;5.048;2022-11-15T03:20:02;1006.1;;;9.4;93.9
72226;BME280;60130;52.250;5.048;2022-11-15T03:25:03;1006.0;;;9.5;94.1
72226;BME280;60130;52.250;5.048;2022-11-15T03:30:03;1006.1;;;9.6;94.2
72226;BME280;60130;52.250;5.048;2022-11-15T03:35:02;1006.1;;;9.8;94.1
72226;BME280;60130;52.250;5.048;2022-11-15T03:40:00;1006.0;;;9.8;94.0
72226;BME280;60130;52.250;5.048;2022-11-15T03:45:05;1006.0;;;10.0;93.8
72226;BME280;60130;52.250;5.048;2022-11-15T03:50:03;1006.1;;;10.1;93.7
72226;BME280;60130;52.250;5.048;2022-11-15T03:55:02;1006.0;;;10.1;93.8
72226;BME280;60130;52.250;5.048;2022-11-15T04:00:00;1006.0;;;10.2;93.7
72226;BME280;60130;52.250;5.048;2022-11-15T04:05:00;1005.9;;;10.2;93.7
72226;BME280;60130;52.250;5.048;2022-11-15T04:10:00;1005.9;;;10.2;93.7
72226;BME280;60130;52.250;5.048;2022-11-15T04:15:01;1005.9;;;10.3;93.6
72226;BME280;60130;52.250;5.048;2022-11-15T04:20:00;1005.9;;;10.4;93.3
72226;BME280;60130;52.250;5.048;2022-11-15T04:25:00;1005.9;;;10.5;93.1
72226;BME280;60130;52.250;5.048;2022-11-15T04:30:00;1005.9;;;10.5;93.0
72226;BME280;60130;52.250;5.048;2022-11-15T04:35:00;1005.8;;;10.5;93.0
72226;BME280;60130;52.250;5.048;2022-11-15T04:40:00;1005.8;;;10.5;92.9
72226;BME280;60130;52.250;5.048;2022-11-15T04:45:00;1005.7;;;10.6;92.9
72226;BME280;60130;52.250;5.048;2022-11-15T04:50:00;1005.7;;;10.7;92.8
72226;BME280;60130;52.250;5.048;2022-11-15T04:55:00;1005.7;;;10.7;92.7
72226;BME280;60130;52.250;5.048;2022-11-15T05:00:00;1005.8;;;10.7;92.5
72226;BME280;60130;52.250;5.048;2022-11-15T05:05:00;1005.9;;;10.7;92.5
72226;BME280;60130;52.250;5.048;2022-11-15T05:10:00;1005.9;;;10.7;92.5
72226;BME280;60130;52.250;5.048;2022-11-15T05:15:00;1006.0;;;10.7;92.5
72226;BME280;60130;52.250;5.048;2022-11-15T05:20:00;1006.0;;;10.7;92.7
72226;BME280;60130;52.250;5.048;2022-11-15T05:25:00;1006.1;;;10.8;92.6
72226;BME280;60130;52.250;5.048;2022-11-15T05:30:00;1006.0;;;10.8;92.4
72226;BME280;60130;52.250;5.048;2022-11-15T05:35:00;1006.0;;;10.9;92.4
72226;BME280;60130;52.250;5.048;2022-11-15T05:40:00;1006.0;;;10.9;92.4
72226;BME280;60130;52.250;5.048;2022-11-15T05:45:02;1006.0;;;11.0;92.0
72226;BME280;60130;52.250;5.048;2022-11-15T05:50:00;1006.1;;;11.0;92.1
72226;BME280;60130;52.250;5.048;2022-11-15T05:55:01;1006.0;;;11.0;92.0
72226;BME280;60130;52.250;5.048;2022-11-15T06:00:00;1006.0;;;11.1;91.8
72226;BME280;60130;52.250;5.048;2022-11-15T06:05:00;1006.0;;;11.1;91.7
72226;BME280;60130;52.250;5.048;2022-11-15T06:10:00;1006.1;;;11.1;91.7
72226;BME280;60130;52.250;5.048;2022-11-15T06:15:00;1006.2;;;11.1;91.6
72226;BME280;60130;52.250;5.048;2022-11-15T06:20:00;1006.2;;;11.1;91.9
72226;BME280;60130;52.250;5.048;2022-11-15T06:25:00;1006.2;;;11.1;91.7
72226;BME280;60130;52.250;5.048;2022-11-15T06:30:00;1006.2;;;11.0;91.8
72226;BME280;60130;52.250;5.048;2022-11-15T06:35:00;1006.3;;;11.1;91.8
72226;BME280;60130;52.250;5.048;2022-11-15T06:40:00;1006.3;;;11.1;91.4
72226;BME280;60130;52.250;5.048;2022-11-15T06:45:00;1006.4;;;11.1;91.8
72226;BME280;60130;52.250;5.048;2022-11-15T06:50:00;1006.5;;;11.2;91.6
72226;BME280;60130;52.250;5.048;2022-11-15T06:55:00;1006.5;;;11.1;91.7
72226;BME280;60130;52.250;5.048;2022-11-15T07:00:00;1006.5;;;11.2;91.6
72226;BME280;60130;52.250;5.048;2022-11-15T07:05:00;1006.4;;;11.2;91.5
72226;BME280;60130;52.250;5.048;2022-11-15T07:10:00;1006.5;;;11.1;91.6
72226;BME280;60130;52.250;5.048;2022-11-15T07:15:00;1006.5;;;11.2;91.3
72226;BME280;60130;52.250;5.048;2022-11-15T07:20:00;1006.5;;;11.1;91.4
72226;BME280;60130;52.250;5.048;2022-11-15T07:25:00;1006.7;;;10.9;91.5
72226;BME280;60130;52.250;5.048;2022-11-15T07:30:00;1006.6;;;10.9;91.4
72226;BME280;60130;52.250;5.048;2022-11-15T07:35:00;1006.5;;;10.9;91.9
72226;BME280;60130;52.250;5.048;2022-11-15T07:40:00;1006.5;;;10.9;91.6
72226;BME280;60130;52.250;5.048;2022-11-15T07:45:00;1006.5;;;10.9;91.6
72226;BME280;60130;52.250;5.048;2022-11-15T07:50:00;1006.5;;;10.8;92.0
72226;BME280;60130;52.250;5.048;2022-11-15T07:55:00;1006.6;;;11.0;91.9
72226;BME280;60130;52.250;5.048;2022-11-15T08:00:00;1006.5;;;11.1;91.4
72226;BME280;60130;52.250;5.048;2022-11-15T08:05:00;1006.4;;;11.1;91.3
72226;BME280;60130;52.250;5.048;2022-11-15T08:10:00;1006.4;;;11.1;91.0
72226;BME280;60130;52.250;5.048;2022-11-15T08:15:00;1006.4;;;11.1;90.9
72226;BME280;60130;52.250;5.048;2022-11-15T08:20:00;1006.4;;;11.2;91.0
72226;BME280;60130;52.250;5.048;2022-11-15T08:25:00;1006.3;;;11.2;90.9
72226;BME280;60130;52.250;5.048;2022-11-15T08:30:00;1006.2;;;11.2;90.6
72226;BME280;60130;52.250;5.048;2022-11-15T08:35:00;1006.2;;;11.2;90.3
72226;BME280;60130;52.250;5.048;2022-11-15T08:40:00;1006.1;;;11.4;89.7
72226;BME280;60130;52.250;5.048;2022-11-15T08:45:00;1006.1;;;11.4;89.5
72226;BME280;60130;52.250;5.048;2022-11-15T08:50:00;1006.1;;;11.4;89.1
72226;BME280;60130;52.250;5.048;2022-11-15T08:55:00;1006.0;;;11.5;88.8
72226;BME280;60130;52.250;5.048;2022-11-15T09:00:00;1006.0;;;11.8;88.1
72226;BME280;60130;52.250;5.048;2022-11-15T09:05:00;1006.0;;;12.0;87.1
72226;BME280;60130;52.250;5.048;2022-11-15T09:10:00;1006.0;;;12.0;86.4
72226;BME280;60130;52.250;5.048;2022-11-15T09:15:00;1005.9;;;11.8;86.6
72226;BME280;60130;52.250;5.048;2022-11-15T09:20:00;1006.0;;;11.8;86.6
72226;BME280;60130;52.250;5.048;2022-11-15T09:25:00;1006.0;;;11.8;86.2
72226;BME280;60130;52.250;5.048;2022-11-15T09:30:00;1005.9;;;12.0;85.6
72226;BME280;60130;52.250;5.048;2022-11-15T09:35:00;1005.8;;;12.1;84.9
72226;BME280;60130;52.250;5.048;2022-11-15T09:40:00;1005.8;;;12.2;84.3
72226;BME280;60130;52.250;5.048;2022-11-15T09:45:06;1005.9;;;12.3;83.7
72226;BME280;60130;52.250;5.048;2022-11-15T09:50:08;1005.9;;;12.2;82.8
72226;BME280;60130;52.250;5.048;2022-11-15T09:55:00;1005.9;;;12.2;83.5
72226;BME280;60130;52.250;5.048;2022-11-15T10:00:08;1005.9;;;12.3;83.1
72226;BME280;60130;52.250;5.048;2022-11-15T10:05:01;1005.8;;;12.2;83.2
72226;BME280;60130;52.250;5.048;2022-11-15T10:10:14;1005.8;;;12.2;82.6
72226;BME280;60130;52.250;5.048;2022-11-15T10:15:02;1005.8;;;12.2;81.5
72226;BME280;60130;52.250;5.048;2022-11-15T10:20:10;1005.8;;;12.4;81.5
72226;BME280;60130;52.250;5.048;2022-11-15T10:25:10;1005.7;;;12.2;81.7
72226;BME280;60130;52.250;5.048;2022-11-15T10:30:00;1005.6;;;12.2;81.7
72226;BME280;60130;52.250;5.048;2022-11-15T10:35:19;1005.3;;;12.2;82.5
72226;BME280;60130;52.250;5.048;2022-11-15T10:40:03;1005.2;;;12.3;81.4
72226;BME280;60130;52.250;5.048;2022-11-15T10:45:00;1005.1;;;12.3;81.5
72226;BME280;60130;52.250;5.048;2022-11-15T10:50:06;1005.1;;;12.4;80.6
72226;BME280;60130;52.250;5.048;2022-11-15T10:55:05;1005.0;;;12.5;80.1
72226;BME280;60130;52.250;5.048;2022-11-15T11:00:03;1005.1;;;12.6;80.1
72226;BME280;60130;52.250;5.048;2022-11-15T11:05:00;1005.0;;;12.6;80.4
72226;BME280;60130;52.250;5.048;2022-11-15T11:10:03;1004.9;;;12.6;80.2
72226;BME280;60130;52.250;5.048;2022-11-15T11:15:05;1004.8;;;12.6;78.5
72226;BME280;60130;52.250;5.048;2022-11-15T11:20:04;1004.7;;;12.7;79.1
72226;BME280;60130;52.250;5.048;2022-11-15T11:25:09;1004.8;;;12.6;78.7
72226;BME280;60130;52.250;5.048;2022-11-15T11:30:06;1004.8;;;12.5;79.2
72226;BME280;60130;52.250;5.048;2022-11-15T11:35:06;1004.8;;;12.6;79.3
72226;BME280;60130;52.250;5.048;2022-11-15T11:40:10;1004.7;;;12.4;79.4
72226;BME280;60130;52.250;5.048;2022-11-15T11:45:05;1004.6;;;12.6;77.8
72226;BME280;60130;52.250;5.048;2022-11-15T11:50:03;1004.5;;;12.6;77.9
72226;BME280;60130;52.250;5.048;2022-11-15T11:55:04;1004.4;;;12.7;77.5
72226;BME280;60130;52.250;5.048;2022-11-15T12:00:04;1004.2;;;12.8;77.2
72226;BME280;60130;52.250;5.048;2022-11-15T12:05:07;1004.1;;;12.8;76.7
72226;BME280;60130;52.250;5.048;2022-11-15T12:10:03;1004.0;;;12.9;76.8
72226;BME280;60130;52.250;5.048;2022-11-15T12:15:03;1003.9;;;12.9;76.9
72226;BME280;60130;52.250;5.048;2022-11-15T12:20:03;1003.9;;;12.9;76.8
72226;BME280;60130;52.250;5.048;2022-11-15T12:25:04;1003.8;;;12.8;77.1
72226;BME280;60130;52.250;5.048;2022-11-15T12:30:03;1003.7;;;12.9;76.2
72226;BME280;60130;52.250;5.048;2022-11-15T12:35:02;1003.7;;;12.8;76.5
72226;BME280;60130;52.250;5.048;2022-11-15T12:40:19;1003.5;;;12.9;76.3
72226;BME280;60130;52.250;5.048;2022-11-15T12:45:00;1003.5;;;13.0;76.0
72226;BME280;60130;52.250;5.048;2022-11-15T12:50:00;1003.4;;;13.1;75.3
72226;BME280;60130;52.250;5.048;2022-11-15T12:55:02;1003.3;;;13.2;75.1
72226;BME280;60130;52.250;5.048;2022-11-15T13:00:01;1003.2;;;13.3;74.4
72226;BME280;60130;52.250;5.048;2022-11-15T13:10:00;1003.2;;;13.4;73.5
72226;BME280;60130;52.250;5.048;2022-11-15T13:15:00;1003.1;;;13.4;72.8
72226;BME280;60130;52.250;5.048;2022-11-15T13:20:11;1003.0;;;13.3;72.7
72226;BME280;60130;52.250;5.048;2022-11-15T13:25:00;1002.9;;;13.3;73.1
72226;BME280;60130;52.250;5.048;2022-11-15T13:30:00;1002.8;;;13.2;73.3
72226;BME280;60130;52.250;5.048;2022-11-15T13:35:00;1002.7;;;13.2;73.8
72226;BME280;60130;52.250;5.048;2022-11-15T13:40:15;1002.7;;;13.0;73.9
72226;BME280;60130;52.250;5.048;2022-11-15T13:45:02;1002.5;;;12.8;74.3
72226;BME280;60130;52.250;5.048;2022-11-15T13:50:00;1002.5;;;12.8;74.5
72226;BME280;60130;52.250;5.048;2022-11-15T13:55:02;1002.4;;;12.7;74.1
72226;BME280;60130;52.250;5.048;2022-11-15T14:00:02;1002.4;;;12.7;74.3
72226;BME280;60130;52.250;5.048;2022-11-15T14:05:03;1002.3;;;12.5;74.7
72226;BME280;60130;52.250;5.048;2022-11-15T14:10:24;1002.2;;;12.5;75.0
72226;BME280;60130;52.250;5.048;2022-11-15T14:15:18;1002.1;;;12.5;75.0
72226;BME280;60130;52.250;5.048;2022-11-15T14:20:00;1002.0;;;12.4;75.4
72226;BME280;60130;52.250;5.048;2022-11-15T14:25:07;1002.0;;;12.4;74.7
72226;BME280;60130;52.250;5.048;2022-11-15T14:30:00;1001.9;;;12.4;74.4
72226;BME280;60130;52.250;5.048;2022-11-15T14:35:02;1001.8;;;12.4;74.9
72226;BME280;60130;52.250;5.048;2022-11-15T14:40:00;1001.7;;;12.4;75.2
72226;BME280;60130;52.250;5.048;2022-11-15T14:45:00;1001.6;;;12.3;75.5
72226;BME280;60130;52.250;5.048;2022-11-15T14:50:00;1001.5;;;12.4;75.3
72226;BME280;60130;52.250;5.048;2022-11-15T14:55:01;1001.5;;;12.3;75.3
72226;BME280;60130;52.250;5.048;2022-11-15T15:00:00;1001.3;;;12.3;75.3
72226;BME280;60130;52.250;5.048;2022-11-15T15:05:00;1001.2;;;12.3;75.1
72226;BME280;60130;52.250;5.048;2022-11-15T15:10:00;1001.2;;;12.2;75.0
72226;BME280;60130;52.250;5.048;2022-11-15T15:15:00;1001.1;;;12.3;74.6
72226;BME280;60130;52.250;5.048;2022-11-15T15:20:00;1001.0;;;12.3;74.5
72226;BME280;60130;52.250;5.048;2022-11-15T15:25:00;1000.9;;;12.2;74.7
72226;BME280;60130;52.250;5.048;2022-11-15T15:30:00;1000.8;;;12.2;74.2
72226;BME280;60130;52.250;5.048;2022-11-15T15:35:00;1000.7;;;12.2;73.8
72226;BME280;60130;52.250;5.048;2022-11-15T15:40:00;1000.7;;;12.3;73.5
72226;BME280;60130;52.250;5.048;2022-11-15T15:45:00;1000.7;;;12.3;73.0
72226;BME280;60130;52.250;5.048;2022-11-15T15:50:00;1000.7;;;12.3;73.3
72226;BME280;60130;52.250;5.048;2022-11-15T15:55:00;1000.6;;;12.3;72.8
72226;BME280;60130;52.250;5.048;2022-11-15T16:00:00;1000.6;;;12.4;72.9
72226;BME280;60130;52.250;5.048;2022-11-15T16:05:00;1000.6;;;12.4;72.3
72226;BME280;60130;52.250;5.048;2022-11-15T16:10:00;1000.5;;;12.5;71.9
72226;BME280;60130;52.250;5.048;2022-11-15T16:15:01;1000.5;;;12.6;71.8
72226;BME280;60130;52.250;5.048;2022-11-15T16:20:00;1000.5;;;12.6;71.6
72226;BME280;60130;52.250;5.048;2022-11-15T16:25:00;1000.6;;;12.6;72.2
72226;BME280;60130;52.250;5.048;2022-11-15T16:30:00;1000.4;;;12.5;72.2
72226;BME280;60130;52.250;5.048;2022-11-15T16:35:00;1000.3;;;12.6;71.5
72226;BME280;60130;52.250;5.048;2022-11-15T16:40:00;1000.4;;;12.7;71.5
72226;BME280;60130;52.250;5.048;2022-11-15T16:45:00;1000.4;;;12.5;73.1
72226;BME280;60130;52.250;5.048;2022-11-15T16:50:00;1000.4;;;12.4;74.7
72226;BME280;60130;52.250;5.048;2022-11-15T16:55:00;1000.5;;;12.2;75.7
72226;BME280;60130;52.250;5.048;2022-11-15T17:00:00;1000.5;;;12.1;76.4
72226;BME280;60130;52.250;5.048;2022-11-15T17:05:00;1000.5;;;11.8;78.4
72226;BME280;60130;52.250;5.048;2022-11-15T17:10:00;1000.4;;;11.7;79.9
72226;BME280;60130;52.250;5.048;2022-11-15T17:15:00;1000.3;;;11.5;81.0
72226;BME280;60130;52.250;5.048;2022-11-15T17:20:00;1000.3;;;11.4;82.3
72226;BME280;60130;52.250;5.048;2022-11-15T17:25:00;1000.2;;;11.2;84.2
72226;BME280;60130;52.250;5.048;2022-11-15T17:30:00;1000.2;;;11.2;85.2
72226;BME280;60130;52.250;5.048;2022-11-15T17:35:00;1000.1;;;11.1;85.9
72226;BME280;60130;52.250;5.048;2022-11-15T17:40:00;1000.2;;;11.0;87.1
72226;BME280;60130;52.250;5.048;2022-11-15T17:45:00;1000.1;;;10.9;87.8
72226;BME280;60130;52.250;5.048;2022-11-15T17:50:00;1000.0;;;10.8;88.2
72226;BME280;60130;52.250;5.048;2022-11-15T17:55:00;1000.0;;;10.8;88.7
72226;BME280;60130;52.250;5.048;2022-11-15T18:00:00;1000.0;;;10.7;88.9
72226;BME280;60130;52.250;5.048;2022-11-15T18:05:00;1000.0;;;10.7;89.5
72226;BME280;60130;52.250;5.048;2022-11-15T18:10:00;999.9;;;10.8;89.7
72226;BME280;60130;52.250;5.048;2022-11-15T18:15:00;999.8;;;10.7;90.0
72226;BME280;60130;52.250;5.048;2022-11-15T18:20:00;999.8;;;10.8;90.2
72226;BME280;60130;52.250;5.048;2022-11-15T18:25:00;999.9;;;10.8;90.3
72226;BME280;60130;52.250;5.048;2022-11-15T18:30:00;999.9;;;10.8;90.5
72226;BME280;60130;52.250;5.048;2022-11-15T18:35:00;999.7;;;10.9;90.7
72226;BME280;60130;52.250;5.048;2022-11-15T18:40:00;999.8;;;10.9;90.7
72226;BME280;60130;52.250;5.048;2022-11-15T18:45:00;999.7;;;10.9;91.0
72226;BME280;60130;52.250;5.048;2022-11-15T18:50:00;999.7;;;11.0;90.9
72226;BME280;60130;52.250;5.048;2022-11-15T18:55:00;999.7;;;11.0;91.1
72226;BME280;60130;52.250;5.048;2022-11-15T19:00:00;999.7;;;11.1;91.0
72226;BME280;60130;52.250;5.048;2022-11-15T19:05:00;999.5;;;11.1;91.1
72226;BME280;60130;52.250;5.048;2022-11-15T19:10:00;999.6;;;11.1;91.0
72226;BME280;60130;52.250;5.048;2022-11-15T19:15:00;999.6;;;11.1;91.0
72226;BME280;60130;52.250;5.048;2022-11-15T19:20:00;999.5;;;11.2;91.2
72226;BME280;60130;52.250;5.048;2022-11-15T19:25:00;999.5;;;11.2;91.2
72226;BME280;60130;52.250;5.048;2022-11-15T19:30:00;999.7;;;11.3;91.2
72226;BME280;60130;52.250;5.048;2022-11-15T19:35:00;999.6;;;11.3;91.4
72226;BME280;60130;52.250;5.048;2022-11-15T19:40:00;999.6;;;11.4;91.6
72226;BME280;60130;52.250;5.048;2022-11-15T19:45:00;999.5;;;11.4;91.7
72226;BME280;60130;52.250;5.048;2022-11-15T19:50:00;999.4;;;11.4;91.7
72226;BME280;60130;52.250;5.048;2022-11-15T19:55:00;999.4;;;11.4;91.8
72226;BME280;60130;52.250;5.048;2022-11-15T20:00:00;999.4;;;11.5;92.0
72226;BME280;60130;52.250;5.048;2022-11-15T20:05:00;999.4;;;11.5;92.0
72226;BME280;60130;52.250;5.048;2022-11-15T20:10:00;999.2;;;11.5;92.0
72226;BME280;60130;52.250;5.048;2022-11-15T20:15:00;999.2;;;11.5;92.0
72226;BME280;60130;52.250;5.048;2022-11-15T20:20:00;999.2;;;11.6;92.1
72226;BME280;60130;52.250;5.048;2022-11-15T20:25:00;999.3;;;11.5;92.3
72226;BME280;60130;52.250;5.048;2022-11-15T20:30:00;999.2;;;11.6;92.2
72226;BME280;60130;52.250;5.048;2022-11-15T20:35:00;999.1;;;11.6;92.2
72226;BME280;60130;52.250;5.048;2022-11-15T20:40:00;999.1;;;11.6;92.2
72226;BME280;60130;52.250;5.048;2022-11-15T20:45:00;999.2;;;11.7;92.3
72226;BME280;60130;52.250;5.048;2022-11-15T20:50:00;999.2;;;11.7;92.4
72226;BME280;60130;52.250;5.048;2022-11-15T20:55:00;999.1;;;11.8;92.3
72226;BME280;60130;52.250;5.048;2022-11-15T21:00:00;999.0;;;11.8;92.2
72226;BME280;60130;52.250;5.048;2022-11-15T21:05:00;999.0;;;11.8;92.1
72226;BME280;60130;52.250;5.048;2022-11-15T21:10:00;999.0;;;11.8;92.3
72226;BME280;60130;52.250;5.048;2022-11-15T21:15:00;999.0;;;11.8;92.4
72226;BME280;60130;52.250;5.048;2022-11-15T21:20:00;998.9;;;11.9;92.3
72226;BME280;60130;52.250;5.048;2022-11-15T21:25:00;998.9;;;11.9;92.2
72226;BME280;60130;52.250;5.048;2022-11-15T21:30:00;998.8;;;11.9;92.2
72226;BME280;60130;52.250;5.048;2022-11-15T21:35:00;998.8;;;12.0;92.2
72226;BME280;60130;52.250;5.048;2022-11-15T21:40:00;998.6;;;12.0;92.3
72226;BME280;60130;52.250;5.048;2022-11-15T21:45:00;998.5;;;11.9;92.6
72226;BME280;60130;52.250;5.048;2022-11-15T21:50:00;998.6;;;12.0;92.5
72226;BME280;60130;52.250;5.048;2022-11-15T21:55:00;998.5;;;12.1;92.3
72226;BME280;60130;52.250;5.048;2022-11-15T22:00:00;998.6;;;12.1;92.3
72226;BME280;60130;52.250;5.048;2022-11-15T22:05:00;998.5;;;12.1;92.3
72226;BME280;60130;52.250;5.048;2022-11-15T22:10:00;998.5;;;12.2;92.2
72226;BME280;60130;52.250;5.048;2022-11-15T22:15:00;998.4;;;12.1;92.3
72226;BME280;60130;52.250;5.048;2022-11-15T22:20:00;998.4;;;12.2;92.4
72226;BME280;60130;52.250;5.048;2022-11-15T22:25:00;998.3;;;12.2;92.4
72226;BME280;60130;52.250;5.048;2022-11-15T22:30:00;998.3;;;12.2;92.4
72226;BME280;60130;52.250;5.048;2022-11-15T22:35:00;998.3;;;12.2;92.4
72226;BME280;60130;52.250;5.048;2022-11-15T22:40:00;998.2;;;12.2;92.3
72226;BME280;60130;52.250;5.048;2022-11-15T22:45:00;998.1;;;12.2;92.3
72226;BME280;60130;52.250;5.048;2022-11-15T22:50:00;998.1;;;12.2;92.3
72226;BME280;60130;52.250;5.048;2022-11-15T22:55:00;998.1;;;12.2;92.5
72226;BME280;60130;52.250;5.048;2022-11-15T23:00:00;998.0;;;12.2;92.7
72226;BME280;60130;52.250;5.048;2022-11-15T23:05:00;998.0;;;12.2;92.5
72226;BME280;60130;52.250;5.048;2022-11-15T23:10:00;997.9;;;12.2;92.7
72226;BME280;60130;52.250;5.048;2022-11-15T23:15:00;997.8;;;12.2;92.8
72226;BME280;60130;52.250;5.048;2022-11-15T23:20:00;997.8;;;12.2;92.9
72226;BME280;60130;52.250;5.048;2022-11-15T23:25:00;997.8;;;12.1;93.1
72226;BME280;60130;52.250;5.048;2022-11-15T23:30:00;997.8;;;12.2;93.1
72226;BME280;60130;52.250;5.048;2022-11-15T23:35:00;997.7;;;12.1;93.2
72226;BME280;60130;52.250;5.048;2022-11-15T23:40:00;997.7;;;12.2;93.0
72226;BME280;60130;52.250;5.048;2022-11-15T23:45:00;997.7;;;12.2;93.1
72226;BME280;60130;52.250;5.048;2022-11-15T23:50:00;997.7;;;12.2;93.2
72226;BME280;60130;52.250;5.048;2022-11-15T23:55:00;997.6;;;12.2;93.3
